sensor_id;sensor_type;location;lat;lon;timestamp;temperature;humidity
18408;DHT22;9330;52.210;21.174;2023-11-21T00:00:23;0.00;99.90
18408;DHT22;9330;52.210;21.174;2023-11-21T00:02:52;-0.10;99.90
18408;DHT22;9330;52.210;21.174;2023-11-21T00:05:19;-0.10;99.90
18408;DHT22;9330;52.210;21.174;2023-11-21T00:07:48;-0.20;99.90
18408;DHT22;9330;52.210;21.174;2023-11-21T00:10:17;-0.20;99.90
18408;DHT22;9330;52.210;21.174;2023-11-21T00:12:43;-0.20;99.90
18408;DHT22;9330;52.210;21.174;2023-11-21T00:15:13;-0.20;99.90
18408;DHT22;9330;52.210;21.174;2023-11-21T00:17:41;-0.20;99.90
18408;DHT22;9330;52.210;21.174;2023-11-21T00:20:10;-0.20;99.90
18408;DHT22;9330;52.210;21.174;2023-11-21T00:22:38;-0.20;99.90
18408;DHT22;9330;52.210;21.174;2023-11-21T00:25:06;-0.20;99.90
18408;DHT22;9330;52.210;21.174;2023-11-21T00:27:34;-0.20;99.90
18408;DHT22;9330;52.210;21.174;2023-11-21T00:30:01;-0.20;99.90
18408;DHT22;9330;52.210;21.174;2023-11-21T00:32:30;-0.30;99.90
18408;DHT22;9330;52.210;21.174;2023-11-21T00:34:57;0.10;99.90
18408;DHT22;9330;52.210;21.174;2023-11-21T00:37:26;-0.30;99.90
18408;DHT22;9330;52.210;21.174;2023-11-21T00:39:53;-0.20;99.90
18408;DHT22;9330;52.210;21.174;2023-11-21T00:42:19;-0.30;99.90
18408;DHT22;9330;52.210;21.174;2023-11-21T00:44:47;-0.20;99.90
18408;DHT22;9330;52.210;21.174;2023-11-21T00:47:14;-0.40;99.90
18408;DHT22;9330;52.210;21.174;2023-11-21T00:49:42;-0.30;99.90
18408;DHT22;9330;52.210;21.174;2023-11-21T00:52:08;-0.20;99.90
18408;DHT22;9330;52.210;21.174;2023-11-21T00:54:37;-0.40;99.90
18408;DHT22;9330;52.210;21.174;2023-11-21T00:57:04;-0.40;99.90
18408;DHT22;9330;52.210;21.174;2023-11-21T00:59:31;-0.40;99.90
18408;DHT22;9330;52.210;21.174;2023-11-21T01:01:57;-0.20;99.90
18408;DHT22;9330;52.210;21.174;2023-11-21T01:04:25;-0.30;99.90
18408;DHT22;9330;52.210;21.174;2023-11-21T01:06:52;-0.30;99.90
18408;DHT22;9330;52.210;21.174;2023-11-21T01:09:19;-0.30;99.90
18408;DHT22;9330;52.210;21.174;2023-11-21T01:11:47;-0.40;99.90
18408;DHT22;9330;52.210;21.174;2023-11-21T01:14:14;-0.40;99.90
18408;DHT22;9330;52.210;21.174;2023-11-21T01:16:43;-0.50;99.90
18408;DHT22;9330;52.210;21.174;2023-11-21T01:19:09;-0.50;99.90
18408;DHT22;9330;52.210;21.174;2023-11-21T01:21:36;-0.50;99.90
18408;DHT22;9330;52.210;21.174;2023-11-21T01:24:04;-0.50;99.90
18408;DHT22;9330;52.210;21.174;2023-11-21T01:26:32;-0.40;99.90
18408;DHT22;9330;52.210;21.174;2023-11-21T01:29:01;-0.40;99.90
18408;DHT22;9330;52.210;21.174;2023-11-21T01:31:27;-0.40;99.90
18408;DHT22;9330;52.210;21.174;2023-11-21T01:33:55;-0.50;99.90
18408;DHT22;9330;52.210;21.174;2023-11-21T01:36:22;-0.50;99.90
18408;DHT22;9330;52.210;21.174;2023-11-21T01:38:49;-0.50;99.90
18408;DHT22;9330;52.210;21.174;2023-11-21T01:41:16;-0.50;99.90
18408;DHT22;9330;52.210;21.174;2023-11-21T01:43:42;-0.50;99.90
18408;DHT22;9330;52.210;21.174;2023-11-21T01:46:11;-0.50;99.90
18408;DHT22;9330;52.210;21.174;2023-11-21T01:48:38;-0.30;99.90
18408;DHT22;9330;52.210;21.174;2023-11-21T01:51:06;-0.50;99.90
18408;DHT22;9330;52.210;21.174;2023-11-21T01:53:33;-0.50;99.90
18408;DHT22;9330;52.210;21.174;2023-11-21T01:56:02;-0.50;99.90
18408;DHT22;9330;52.210;21.174;2023-11-21T01:58:30;-0.50;99.90
18408;DHT22;9330;52.210;21.174;2023-11-21T02:00:57;-0.50;99.90
18408;DHT22;9330;52.210;21.174;2023-11-21T02:03:26;-0.50;99.90
18408;DHT22;9330;52.210;21.174;2023-11-21T02:05:52;-0.50;99.90
18408;DHT22;9330;52.210;21.174;2023-11-21T02:08:20;-0.50;99.90
18408;DHT22;9330;52.210;21.174;2023-11-21T02:10:46;-0.60;99.90
18408;DHT22;9330;52.210;21.174;2023-11-21T02:13:13;-0.50;99.90
18408;DHT22;9330;52.210;21.174;2023-11-21T02:15:42;-0.60;99.90
18408;DHT22;9330;52.210;21.174;2023-11-21T02:18:09;-0.50;99.90
18408;DHT22;9330;52.210;21.174;2023-11-21T02:20:38;-0.60;99.90
18408;DHT22;9330;52.210;21.174;2023-11-21T02:23:08;-0.60;99.90
18408;DHT22;9330;52.210;21.174;2023-11-21T02:25:35;-0.60;99.90
18408;DHT22;9330;52.210;21.174;2023-11-21T02:28:03;-0.60;99.90
18408;DHT22;9330;52.210;21.174;2023-11-21T02:30:32;-0.60;99.90
18408;DHT22;9330;52.210;21.174;2023-11-21T02:32:58;-0.60;99.90
18408;DHT22;9330;52.210;21.174;2023-11-21T02:35:25;-0.60;99.90
18408;DHT22;9330;52.210;21.174;2023-11-21T02:37:52;-0.70;99.90
18408;DHT22;9330;52.210;21.174;2023-11-21T02:40:20;-0.60;99.90
18408;DHT22;9330;52.210;21.174;2023-11-21T02:42:47;-0.60;99.90
18408;DHT22;9330;52.210;21.174;2023-11-21T02:45:17;-0.60;99.90
18408;DHT22;9330;52.210;21.174;2023-11-21T02:47:44;-0.70;99.90
18408;DHT22;9330;52.210;21.174;2023-11-21T02:50:11;-0.70;99.90
18408;DHT22;9330;52.210;21.174;2023-11-21T02:52:39;-0.70;99.90
18408;DHT22;9330;52.210;21.174;2023-11-21T02:55:07;-0.70;99.90
18408;DHT22;9330;52.210;21.174;2023-11-21T02:57:35;-0.70;99.90
18408;DHT22;9330;52.210;21.174;2023-11-21T03:00:02;-0.70;99.90
18408;DHT22;9330;52.210;21.174;2023-11-21T03:02:32;-0.70;99.90
18408;DHT22;9330;52.210;21.174;2023-11-21T03:05:02;-0.70;99.90
18408;DHT22;9330;52.210;21.174;2023-11-21T03:07:30;-0.70;99.90
18408;DHT22;9330;52.210;21.174;2023-11-21T03:09:57;-0.60;99.90
18408;DHT22;9330;52.210;21.174;2023-11-21T03:12:24;-0.70;99.90
18408;DHT22;9330;52.210;21.174;2023-11-21T03:14:52;-0.70;99.90
18408;DHT22;9330;52.210;21.174;2023-11-21T03:17:20;-0.60;99.90
18408;DHT22;9330;52.210;21.174;2023-11-21T03:19:46;-0.80;99.90
18408;DHT22;9330;52.210;21.174;2023-11-21T03:22:13;-0.70;99.90
18408;DHT22;9330;52.210;21.174;2023-11-21T03:24:40;-0.70;99.90
18408;DHT22;9330;52.210;21.174;2023-11-21T03:27:07;-0.70;99.90
18408;DHT22;9330;52.210;21.174;2023-11-21T03:29:34;-0.70;99.90
18408;DHT22;9330;52.210;21.174;2023-11-21T03:32:02;-0.70;99.90
18408;DHT22;9330;52.210;21.174;2023-11-21T03:34:30;-0.80;99.90
18408;DHT22;9330;52.210;21.174;2023-11-21T03:36:56;-0.80;99.90
18408;DHT22;9330;52.210;21.174;2023-11-21T03:39:24;-0.80;99.90
18408;DHT22;9330;52.210;21.174;2023-11-21T03:41:51;-0.80;99.90
18408;DHT22;9330;52.210;21.174;2023-11-21T03:44:18;-0.80;99.90
18408;DHT22;9330;52.210;21.174;2023-11-21T03:46:45;-0.80;99.90
18408;DHT22;9330;52.210;21.174;2023-11-21T03:49:13;-0.90;99.90
18408;DHT22;9330;52.210;21.174;2023-11-21T03:51:40;-0.80;99.90
18408;DHT22;9330;52.210;21.174;2023-11-21T03:54:06;-0.80;99.90
18408;DHT22;9330;52.210;21.174;2023-11-21T03:56:33;-0.80;99.90
18408;DHT22;9330;52.210;21.174;2023-11-21T03:59:00;-0.70;99.90
18408;DHT22;9330;52.210;21.174;2023-11-21T04:01:27;-0.90;99.90
18408;DHT22;9330;52.210;21.174;2023-11-21T04:03:54;-0.80;99.90
18408;DHT22;9330;52.210;21.174;2023-11-21T04:06:22;-0.90;99.90
18408;DHT22;9330;52.210;21.174;2023-11-21T04:08:49;-0.80;99.90
18408;DHT22;9330;52.210;21.174;2023-11-21T04:11:16;-0.80;99.90
18408;DHT22;9330;52.210;21.174;2023-11-21T04:13:44;-0.90;99.90
18408;DHT22;9330;52.210;21.174;2023-11-21T04:16:12;-0.90;99.90
18408;DHT22;9330;52.210;21.174;2023-11-21T04:18:39;-0.80;99.90
18408;DHT22;9330;52.210;21.174;2023-11-21T04:21:06;-0.90;99.90
18408;DHT22;9330;52.210;21.174;2023-11-21T04:23:35;-0.80;99.90
18408;DHT22;9330;52.210;21.174;2023-11-21T04:26:02;-0.90;99.90
18408;DHT22;9330;52.210;21.174;2023-11-21T04:28:29;-0.80;99.90
18408;DHT22;9330;52.210;21.174;2023-11-21T04:30:56;-0.80;99.90
18408;DHT22;9330;52.210;21.174;2023-11-21T04:33:23;-0.90;99.90
18408;DHT22;9330;52.210;21.174;2023-11-21T04:35:51;-0.90;99.90
18408;DHT22;9330;52.210;21.174;2023-11-21T04:38:17;-0.90;99.90
18408;DHT22;9330;52.210;21.174;2023-11-21T04:40:46;-0.90;99.90
18408;DHT22;9330;52.210;21.174;2023-11-21T04:43:13;-1.00;99.90
18408;DHT22;9330;52.210;21.174;2023-11-21T04:45:39;-0.90;99.90
18408;DHT22;9330;52.210;21.174;2023-11-21T04:48:07;-0.90;99.90
18408;DHT22;9330;52.210;21.174;2023-11-21T04:50:34;-0.90;99.90
18408;DHT22;9330;52.210;21.174;2023-11-21T04:53:01;-0.90;99.90
18408;DHT22;9330;52.210;21.174;2023-11-21T04:55:29;-0.80;99.90
18408;DHT22;9330;52.210;21.174;2023-11-21T04:57:58;-0.90;99.90
18408;DHT22;9330;52.210;21.174;2023-11-21T05:00:25;-1.00;99.90
18408;DHT22;9330;52.210;21.174;2023-11-21T05:02:52;-0.90;99.90
18408;DHT22;9330;52.210;21.174;2023-11-21T05:05:18;-0.90;99.90
18408;DHT22;9330;52.210;21.174;2023-11-21T05:07:45;-0.90;99.90
18408;DHT22;9330;52.210;21.174;2023-11-21T05:10:14;-1.00;99.90
18408;DHT22;9330;52.210;21.174;2023-11-21T05:12:41;-0.80;99.90
18408;DHT22;9330;52.210;21.174;2023-11-21T05:15:13;-0.90;99.90
18408;DHT22;9330;52.210;21.174;2023-11-21T05:17:41;-1.00;99.90
18408;DHT22;9330;52.210;21.174;2023-11-21T05:20:09;-0.90;99.90
18408;DHT22;9330;52.210;21.174;2023-11-21T05:22:37;-1.00;99.90
18408;DHT22;9330;52.210;21.174;2023-11-21T05:25:06;-0.90;99.90
18408;DHT22;9330;52.210;21.174;2023-11-21T05:27:33;-1.00;99.90
18408;DHT22;9330;52.210;21.174;2023-11-21T05:30:01;-0.90;99.90
18408;DHT22;9330;52.210;21.174;2023-11-21T05:32:29;-0.90;99.90
18408;DHT22;9330;52.210;21.174;2023-11-21T05:34:56;-0.90;99.90
18408;DHT22;9330;52.210;21.174;2023-11-21T05:37:24;-0.80;99.90
18408;DHT22;9330;52.210;21.174;2023-11-21T05:39:52;-0.90;99.90
18408;DHT22;9330;52.210;21.174;2023-11-21T05:42:20;-0.90;99.90
18408;DHT22;9330;52.210;21.174;2023-11-21T05:44:46;-0.90;99.90
18408;DHT22;9330;52.210;21.174;2023-11-21T05:47:13;-0.70;99.90
18408;DHT22;9330;52.210;21.174;2023-11-21T05:49:41;-0.90;99.90
18408;DHT22;9330;52.210;21.174;2023-11-21T05:52:08;-1.00;99.90
18408;DHT22;9330;52.210;21.174;2023-11-21T05:54:35;-1.00;99.90
18408;DHT22;9330;52.210;21.174;2023-11-21T05:57:02;-1.00;99.90
18408;DHT22;9330;52.210;21.174;2023-11-21T05:59:29;-1.00;99.90
18408;DHT22;9330;52.210;21.174;2023-11-21T06:01:56;-1.00;99.90
18408;DHT22;9330;52.210;21.174;2023-11-21T06:04:24;-0.90;99.90
18408;DHT22;9330;52.210;21.174;2023-11-21T06:06:52;-0.90;99.90
18408;DHT22;9330;52.210;21.174;2023-11-21T06:09:19;-1.00;99.90
18408;DHT22;9330;52.210;21.174;2023-11-21T06:11:46;-0.90;99.90
18408;DHT22;9330;52.210;21.174;2023-11-21T06:14:13;-1.00;99.90
18408;DHT22;9330;52.210;21.174;2023-11-21T06:16:43;-0.90;99.90
18408;DHT22;9330;52.210;21.174;2023-11-21T06:19:10;-1.00;99.90
18408;DHT22;9330;52.210;21.174;2023-11-21T06:21:37;-1.00;99.90
18408;DHT22;9330;52.210;21.174;2023-11-21T06:24:06;-1.00;99.90
18408;DHT22;9330;52.210;21.174;2023-11-21T06:26:33;-1.10;99.90
18408;DHT22;9330;52.210;21.174;2023-11-21T06:29:00;-1.10;99.90
18408;DHT22;9330;52.210;21.174;2023-11-21T06:31:28;-1.00;99.90
18408;DHT22;9330;52.210;21.174;2023-11-21T06:33:55;-1.00;99.90
18408;DHT22;9330;52.210;21.174;2023-11-21T06:36:23;-1.00;99.90
18408;DHT22;9330;52.210;21.174;2023-11-21T06:38:50;-1.00;99.90
18408;DHT22;9330;52.210;21.174;2023-11-21T06:41:18;-1.00;99.90
18408;DHT22;9330;52.210;21.174;2023-11-21T06:43:45;-1.00;99.90
18408;DHT22;9330;52.210;21.174;2023-11-21T06:46:12;-0.50;99.90
18408;DHT22;9330;52.210;21.174;2023-11-21T06:48:41;-0.90;99.90
18408;DHT22;9330;52.210;21.174;2023-11-21T06:51:08;-1.00;99.90
18408;DHT22;9330;52.210;21.174;2023-11-21T06:53:36;-1.00;99.90
18408;DHT22;9330;52.210;21.174;2023-11-21T06:56:03;-0.90;99.90
18408;DHT22;9330;52.210;21.174;2023-11-21T06:58:33;-1.00;99.90
18408;DHT22;9330;52.210;21.174;2023-11-21T07:01:00;-0.90;99.90
18408;DHT22;9330;52.210;21.174;2023-11-21T07:03:27;-0.90;99.90
18408;DHT22;9330;52.210;21.174;2023-11-21T07:05:54;-0.90;99.90
18408;DHT22;9330;52.210;21.174;2023-11-21T07:08:21;-1.00;99.90
18408;DHT22;9330;52.210;21.174;2023-11-21T07:10:48;-0.90;99.90
18408;DHT22;9330;52.210;21.174;2023-11-21T07:13:15;-0.90;99.90
18408;DHT22;9330;52.210;21.174;2023-11-21T07:15:43;-1.00;99.90
18408;DHT22;9330;52.210;21.174;2023-11-21T07:18:10;-1.00;99.90
18408;DHT22;9330;52.210;21.174;2023-11-21T07:20:37;-1.00;99.90
18408;DHT22;9330;52.210;21.174;2023-11-21T07:23:03;-0.90;99.90
18408;DHT22;9330;52.210;21.174;2023-11-21T07:25:31;-0.90;99.90
18408;DHT22;9330;52.210;21.174;2023-11-21T07:27:59;-1.00;99.90
18408;DHT22;9330;52.210;21.174;2023-11-21T07:30:26;-1.00;99.90
18408;DHT22;9330;52.210;21.174;2023-11-21T07:32:54;-1.00;99.90
18408;DHT22;9330;52.210;21.174;2023-11-21T07:35:21;-1.00;99.90
18408;DHT22;9330;52.210;21.174;2023-11-21T07:37:48;-1.00;99.90
18408;DHT22;9330;52.210;21.174;2023-11-21T07:40:15;-0.90;99.90
18408;DHT22;9330;52.210;21.174;2023-11-21T07:42:42;-1.00;99.90
18408;DHT22;9330;52.210;21.174;2023-11-21T07:45:09;-1.00;99.90
18408;DHT22;9330;52.210;21.174;2023-11-21T07:47:37;-1.00;99.90
18408;DHT22;9330;52.210;21.174;2023-11-21T07:50:07;-1.00;99.90
18408;DHT22;9330;52.210;21.174;2023-11-21T07:52:34;-1.00;99.90
18408;DHT22;9330;52.210;21.174;2023-11-21T07:55:01;-1.00;99.90
18408;DHT22;9330;52.210;21.174;2023-11-21T07:57:28;-1.00;99.90
18408;DHT22;9330;52.210;21.174;2023-11-21T07:59:54;-1.00;99.90
18408;DHT22;9330;52.210;21.174;2023-11-21T08:02:21;-1.00;99.90
18408;DHT22;9330;52.210;21.174;2023-11-21T08:04:48;-1.00;99.90
18408;DHT22;9330;52.210;21.174;2023-11-21T08:07:17;-1.00;99.90
18408;DHT22;9330;52.210;21.174;2023-11-21T08:09:44;-1.00;99.90
18408;DHT22;9330;52.210;21.174;2023-11-21T08:12:12;-0.90;99.90
18408;DHT22;9330;52.210;21.174;2023-11-21T08:14:40;-1.00;99.90
18408;DHT22;9330;52.210;21.174;2023-11-21T08:17:07;-1.00;99.90
18408;DHT22;9330;52.210;21.174;2023-11-21T08:19:35;-0.90;99.90
18408;DHT22;9330;52.210;21.174;2023-11-21T08:22:03;-0.90;99.90
18408;DHT22;9330;52.210;21.174;2023-11-21T08:24:34;-0.90;99.90
18408;DHT22;9330;52.210;21.174;2023-11-21T08:27:01;-0.90;99.90
18408;DHT22;9330;52.210;21.174;2023-11-21T08:29:29;-0.90;99.90
18408;DHT22;9330;52.210;21.174;2023-11-21T08:31:56;-0.80;99.90
18408;DHT22;9330;52.210;21.174;2023-11-21T08:34:23;-0.90;99.90
18408;DHT22;9330;52.210;21.174;2023-11-21T08:36:50;-0.90;99.90
18408;DHT22;9330;52.210;21.174;2023-11-21T08:39:17;-0.80;99.90
18408;DHT22;9330;52.210;21.174;2023-11-21T08:41:46;-0.40;99.90
18408;DHT22;9330;52.210;21.174;2023-11-21T08:44:13;-0.70;99.90
18408;DHT22;9330;52.210;21.174;2023-11-21T08:46:42;-0.80;99.90
18408;DHT22;9330;52.210;21.174;2023-11-21T08:49:10;-0.80;99.90
18408;DHT22;9330;52.210;21.174;2023-11-21T08:51:37;-0.70;99.90
18408;DHT22;9330;52.210;21.174;2023-11-21T08:54:06;-0.80;99.90
18408;DHT22;9330;52.210;21.174;2023-11-21T08:56:33;-0.80;99.90
18408;DHT22;9330;52.210;21.174;2023-11-21T08:59:02;-0.70;99.90
18408;DHT22;9330;52.210;21.174;2023-11-21T09:01:28;-0.80;99.90
18408;DHT22;9330;52.210;21.174;2023-11-21T09:03:56;-0.80;99.90
18408;DHT22;9330;52.210;21.174;2023-11-21T09:06:24;-0.80;99.90
18408;DHT22;9330;52.210;21.174;2023-11-21T09:08:50;-0.80;99.90
18408;DHT22;9330;52.210;21.174;2023-11-21T09:11:17;-0.80;99.90
18408;DHT22;9330;52.210;21.174;2023-11-21T09:13:44;-0.70;99.90
18408;DHT22;9330;52.210;21.174;2023-11-21T09:16:14;-0.80;99.90
18408;DHT22;9330;52.210;21.174;2023-11-21T09:18:41;-0.80;99.90
18408;DHT22;9330;52.210;21.174;2023-11-21T09:21:07;-0.80;99.90
18408;DHT22;9330;52.210;21.174;2023-11-21T09:23:35;-0.80;99.90
18408;DHT22;9330;52.210;21.174;2023-11-21T09:26:02;-0.70;99.90
18408;DHT22;9330;52.210;21.174;2023-11-21T09:28:31;-0.70;99.90
18408;DHT22;9330;52.210;21.174;2023-11-21T09:30:58;-0.50;99.90
18408;DHT22;9330;52.210;21.174;2023-11-21T09:33:26;-0.70;99.90
18408;DHT22;9330;52.210;21.174;2023-11-21T09:35:52;-0.60;99.90
18408;DHT22;9330;52.210;21.174;2023-11-21T09:38:19;-0.60;99.90
18408;DHT22;9330;52.210;21.174;2023-11-21T09:40:46;-0.50;99.90
18408;DHT22;9330;52.210;21.174;2023-11-21T09:43:16;-0.50;99.90
18408;DHT22;9330;52.210;21.174;2023-11-21T09:45:46;-0.50;99.90
18408;DHT22;9330;52.210;21.174;2023-11-21T09:48:14;-0.40;99.90
18408;DHT22;9330;52.210;21.174;2023-11-21T09:50:43;-0.30;99.90
18408;DHT22;9330;52.210;21.174;2023-11-21T09:53:15;-0.40;99.90
18408;DHT22;9330;52.210;21.174;2023-11-21T09:55:45;-0.30;99.90
18408;DHT22;9330;52.210;21.174;2023-11-21T09:58:13;-0.30;99.90
18408;DHT22;9330;52.210;21.174;2023-11-21T10:00:41;-0.30;99.90
18408;DHT22;9330;52.210;21.174;2023-11-21T10:03:08;-0.30;99.90
18408;DHT22;9330;52.210;21.174;2023-11-21T10:05:35;-0.20;99.90
18408;DHT22;9330;52.210;21.174;2023-11-21T10:08:05;-0.10;99.90
18408;DHT22;9330;52.210;21.174;2023-11-21T10:10:33;-0.20;99.90
18408;DHT22;9330;52.210;21.174;2023-11-21T10:13:03;-0.10;99.90
18408;DHT22;9330;52.210;21.174;2023-11-21T10:15:33;-0.20;99.90
18408;DHT22;9330;52.210;21.174;2023-11-21T10:18:02;-0.30;99.90
18408;DHT22;9330;52.210;21.174;2023-11-21T10:20:30;-0.20;99.90
18408;DHT22;9330;52.210;21.174;2023-11-21T10:22:59;-0.30;99.90
18408;DHT22;9330;52.210;21.174;2023-11-21T10:25:28;-0.20;99.90
18408;DHT22;9330;52.210;21.174;2023-11-21T10:27:59;-0.30;99.90
18408;DHT22;9330;52.210;21.174;2023-11-21T10:30:32;-0.20;99.90
18408;DHT22;9330;52.210;21.174;2023-11-21T10:33:02;-0.20;99.90
18408;DHT22;9330;52.210;21.174;2023-11-21T10:35:43;-0.30;99.90
18408;DHT22;9330;52.210;21.174;2023-11-21T10:38:12;-0.10;99.90
18408;DHT22;9330;52.210;21.174;2023-11-21T10:40:41;-0.20;99.90
18408;DHT22;9330;52.210;21.174;2023-11-21T10:43:08;-0.20;99.90
18408;DHT22;9330;52.210;21.174;2023-11-21T10:45:36;-0.20;99.90
18408;DHT22;9330;52.210;21.174;2023-11-21T10:48:06;-0.20;99.90
18408;DHT22;9330;52.210;21.174;2023-11-21T10:50:34;-0.30;99.90
18408;DHT22;9330;52.210;21.174;2023-11-21T10:53:02;-0.30;99.90
18408;DHT22;9330;52.210;21.174;2023-11-21T10:55:30;-0.30;99.90
18408;DHT22;9330;52.210;21.174;2023-11-21T10:58:00;-0.30;99.90
18408;DHT22;9330;52.210;21.174;2023-11-21T11:00:29;-0.30;99.90
18408;DHT22;9330;52.210;21.174;2023-11-21T11:02:56;-0.20;99.90
18408;DHT22;9330;52.210;21.174;2023-11-21T11:05:25;-0.40;99.90
18408;DHT22;9330;52.210;21.174;2023-11-21T11:07:58;-0.40;99.90
18408;DHT22;9330;52.210;21.174;2023-11-21T11:10:26;-0.30;99.90
18408;DHT22;9330;52.210;21.174;2023-11-21T11:12:55;-0.30;99.90
18408;DHT22;9330;52.210;21.174;2023-11-21T11:15:24;-0.40;99.90
18408;DHT22;9330;52.210;21.174;2023-11-21T11:17:53;-0.40;99.90
18408;DHT22;9330;52.210;21.174;2023-11-21T11:20:23;-0.40;99.90
18408;DHT22;9330;52.210;21.174;2023-11-21T11:22:59;-0.40;99.90
18408;DHT22;9330;52.210;21.174;2023-11-21T11:25:41;-0.40;99.90
18408;DHT22;9330;52.210;21.174;2023-11-21T11:28:15;-0.30;99.90
18408;DHT22;9330;52.210;21.174;2023-11-21T11:30:57;-0.30;99.90
18408;DHT22;9330;52.210;21.174;2023-11-21T11:33:34;-0.40;99.90
18408;DHT22;9330;52.210;21.174;2023-11-21T11:36:06;-0.30;99.90
18408;DHT22;9330;52.210;21.174;2023-11-21T11:38:37;-0.30;99.90
18408;DHT22;9330;52.210;21.174;2023-11-21T11:41:05;-0.30;99.90
18408;DHT22;9330;52.210;21.174;2023-11-21T11:43:32;-0.30;99.90
18408;DHT22;9330;52.210;21.174;2023-11-21T11:46:07;-0.40;99.90
18408;DHT22;9330;52.210;21.174;2023-11-21T11:48:37;-0.30;99.90
18408;DHT22;9330;52.210;21.174;2023-11-21T11:51:05;-0.40;99.90
18408;DHT22;9330;52.210;21.174;2023-11-21T11:53:41;-0.30;99.90
18408;DHT22;9330;52.210;21.174;2023-11-21T11:56:25;-0.30;99.90
18408;DHT22;9330;52.210;21.174;2023-11-21T11:58:54;-0.30;99.90
18408;DHT22;9330;52.210;21.174;2023-11-21T12:01:24;-0.40;99.90
18408;DHT22;9330;52.210;21.174;2023-11-21T12:04:24;-0.40;99.90
18408;DHT22;9330;52.210;21.174;2023-11-21T12:06:59;-0.40;99.90
18408;DHT22;9330;52.210;21.174;2023-11-21T12:09:28;-0.50;99.90
18408;DHT22;9330;52.210;21.174;2023-11-21T12:11:56;-0.40;99.90
18408;DHT22;9330;52.210;21.174;2023-11-21T12:14:23;-0.40;99.90
18408;DHT22;9330;52.210;21.174;2023-11-21T12:16:51;-0.50;99.90
18408;DHT22;9330;52.210;21.174;2023-11-21T12:19:19;-0.40;99.90
18408;DHT22;9330;52.210;21.174;2023-11-21T12:21:48;-0.30;99.90
18408;DHT22;9330;52.210;21.174;2023-11-21T12:24:15;-0.40;99.90
18408;DHT22;9330;52.210;21.174;2023-11-21T12:26:57;-0.30;99.90
18408;DHT22;9330;52.210;21.174;2023-11-21T12:29:25;-0.50;99.90
18408;DHT22;9330;52.210;21.174;2023-11-21T12:31:56;-0.40;99.90
18408;DHT22;9330;52.210;21.174;2023-11-21T12:34:23;-0.50;99.90
18408;DHT22;9330;52.210;21.174;2023-11-21T12:36:50;-0.40;99.90
18408;DHT22;9330;52.210;21.174;2023-11-21T12:39:20;-0.40;99.90
18408;DHT22;9330;52.210;21.174;2023-11-21T12:41:48;-0.40;99.90
18408;DHT22;9330;52.210;21.174;2023-11-21T12:44:15;-0.40;99.90
18408;DHT22;9330;52.210;21.174;2023-11-21T12:46:42;-0.60;99.90
18408;DHT22;9330;52.210;21.174;2023-11-21T12:49:13;-0.50;99.90
18408;DHT22;9330;52.210;21.174;2023-11-21T12:51:43;-0.50;99.90
18408;DHT22;9330;52.210;21.174;2023-11-21T12:54:11;-0.60;99.90
18408;DHT22;9330;52.210;21.174;2023-11-21T12:56:38;-0.60;99.90
18408;DHT22;9330;52.210;21.174;2023-11-21T12:59:05;-0.60;99.90
18408;DHT22;9330;52.210;21.174;2023-11-21T13:01:32;-0.50;99.90
18408;DHT22;9330;52.210;21.174;2023-11-21T13:04:02;-0.60;99.90
18408;DHT22;9330;52.210;21.174;2023-11-21T13:06:31;-0.60;99.90
18408;DHT22;9330;52.210;21.174;2023-11-21T13:09:04;-0.70;99.90
18408;DHT22;9330;52.210;21.174;2023-11-21T13:11:34;-0.70;99.90
18408;DHT22;9330;52.210;21.174;2023-11-21T13:14:02;-0.70;99.90
18408;DHT22;9330;52.210;21.174;2023-11-21T13:16:29;-0.50;99.90
18408;DHT22;9330;52.210;21.174;2023-11-21T13:18:57;-0.60;99.90
18408;DHT22;9330;52.210;21.174;2023-11-21T13:21:24;-0.70;99.90
18408;DHT22;9330;52.210;21.174;2023-11-21T13:23:52;-0.60;99.90
18408;DHT22;9330;52.210;21.174;2023-11-21T13:26:19;-0.70;99.90
18408;DHT22;9330;52.210;21.174;2023-11-21T13:28:49;-0.60;99.90
18408;DHT22;9330;52.210;21.174;2023-11-21T13:31:16;-0.70;99.90
18408;DHT22;9330;52.210;21.174;2023-11-21T13:33:52;-0.60;99.90
18408;DHT22;9330;52.210;21.174;2023-11-21T13:36:22;-0.60;99.90
18408;DHT22;9330;52.210;21.174;2023-11-21T13:38:49;-0.50;99.90
18408;DHT22;9330;52.210;21.174;2023-11-21T13:41:19;-0.60;99.90
18408;DHT22;9330;52.210;21.174;2023-11-21T13:43:53;-0.60;99.90
18408;DHT22;9330;52.210;21.174;2023-11-21T13:46:28;-0.50;99.90
18408;DHT22;9330;52.210;21.174;2023-11-21T13:49:00;-0.60;99.90
18408;DHT22;9330;52.210;21.174;2023-11-21T13:51:27;-0.60;99.90
18408;DHT22;9330;52.210;21.174;2023-11-21T13:54:04;-0.60;99.90
18408;DHT22;9330;52.210;21.174;2023-11-21T13:56:36;-0.60;99.90
18408;DHT22;9330;52.210;21.174;2023-11-21T13:59:04;-0.60;99.90
18408;DHT22;9330;52.210;21.174;2023-11-21T14:01:39;-0.70;99.90
18408;DHT22;9330;52.210;21.174;2023-11-21T14:04:20;-0.60;99.90
18408;DHT22;9330;52.210;21.174;2023-11-21T14:07:00;-0.70;99.90
18408;DHT22;9330;52.210;21.174;2023-11-21T14:09:43;-0.70;99.90
18408;DHT22;9330;52.210;21.174;2023-11-21T14:12:11;-0.60;99.90
18408;DHT22;9330;52.210;21.174;2023-11-21T14:14:40;-0.70;99.90
18408;DHT22;9330;52.210;21.174;2023-11-21T14:17:06;-0.70;99.90
18408;DHT22;9330;52.210;21.174;2023-11-21T14:19:34;-0.80;99.90
18408;DHT22;9330;52.210;21.174;2023-11-21T14:22:04;-0.80;99.90
18408;DHT22;9330;52.210;21.174;2023-11-21T14:24:31;-0.90;99.90
18408;DHT22;9330;52.210;21.174;2023-11-21T14:26:58;-0.80;99.90
18408;DHT22;9330;52.210;21.174;2023-11-21T14:29:26;-0.80;99.90
18408;DHT22;9330;52.210;21.174;2023-11-21T14:31:55;-0.80;99.90
18408;DHT22;9330;52.210;21.174;2023-11-21T14:34:23;-0.90;99.90
18408;DHT22;9330;52.210;21.174;2023-11-21T14:36:50;-0.80;99.90
18408;DHT22;9330;52.210;21.174;2023-11-21T14:39:17;-0.80;99.90
18408;DHT22;9330;52.210;21.174;2023-11-21T14:41:49;-0.90;99.90
18408;DHT22;9330;52.210;21.174;2023-11-21T14:44:16;-0.90;99.90
18408;DHT22;9330;52.210;21.174;2023-11-21T14:46:44;-0.80;99.90
18408;DHT22;9330;52.210;21.174;2023-11-21T14:49:12;-0.80;99.90
18408;DHT22;9330;52.210;21.174;2023-11-21T14:51:45;-0.90;99.90
18408;DHT22;9330;52.210;21.174;2023-11-21T14:54:26;-0.90;99.90
18408;DHT22;9330;52.210;21.174;2023-11-21T14:57:06;-0.80;99.90
18408;DHT22;9330;52.210;21.174;2023-11-21T14:59:36;-0.90;99.90
18408;DHT22;9330;52.210;21.174;2023-11-21T15:02:03;-0.90;99.90
18408;DHT22;9330;52.210;21.174;2023-11-21T15:04:41;-1.00;99.90
18408;DHT22;9330;52.210;21.174;2023-11-21T15:07:08;-1.00;99.90
18408;DHT22;9330;52.210;21.174;2023-11-21T15:09:36;-1.00;99.90
18408;DHT22;9330;52.210;21.174;2023-11-21T15:12:07;-0.90;99.90
18408;DHT22;9330;52.210;21.174;2023-11-21T15:14:46;-1.00;99.90
18408;DHT22;9330;52.210;21.174;2023-11-21T15:17:16;-1.00;99.90
18408;DHT22;9330;52.210;21.174;2023-11-21T15:19:48;-1.00;99.90
18408;DHT22;9330;52.210;21.174;2023-11-21T15:22:15;-1.10;99.90
18408;DHT22;9330;52.210;21.174;2023-11-21T15:24:42;-1.00;99.90
18408;DHT22;9330;52.210;21.174;2023-11-21T15:27:12;-1.10;99.90
18408;DHT22;9330;52.210;21.174;2023-11-21T15:29:39;-1.20;99.90
18408;DHT22;9330;52.210;21.174;2023-11-21T15:32:06;-1.00;99.90
18408;DHT22;9330;52.210;21.174;2023-11-21T15:34:34;-1.10;99.90
18408;DHT22;9330;52.210;21.174;2023-11-21T15:37:03;-1.20;99.90